createdAt,value
2023-10-30T00:00:50.156Z,18.67
2023-10-30T00:03:17.536Z,20.77
2023-10-30T00:05:44.645Z,21.60
2023-10-30T00:08:11.646Z,21.63
2023-10-30T00:10:38.567Z,20.30
2023-10-30T00:13:05.939Z,22.27
2023-10-30T00:15:32.878Z,20.20
2023-10-30T00:17:59.956Z,16.67
2023-10-30T00:20:27.692Z,23.63
2023-10-30T00:22:54.620Z,21.97
2023-10-30T00:25:22.609Z,18.63
2023-10-30T00:27:49.692Z,19.93
2023-10-30T00:30:16.815Z,18.70
2023-10-30T00:32:44.192Z,23.10
2023-10-30T00:35:11.151Z,22.50
2023-10-30T00:37:38.049Z,20.07
2023-10-30T00:40:06.949Z,20.53
2023-10-30T00:42:34.205Z,23.03
2023-10-30T00:45:01.183Z,19.20
2023-10-30T00:47:28.127Z,19.90
2023-10-30T00:49:55.013Z,20.80
2023-10-30T00:52:21.946Z,19.57
2023-10-30T00:54:49.208Z,20.63
2023-10-30T00:57:17.404Z,19.93
2023-10-30T00:59:44.394Z,23.37
2023-10-30T01:02:11.358Z,21.13
2023-10-30T01:04:38.540Z,20.90
2023-10-30T01:07:05.707Z,18.80
2023-10-30T01:09:32.707Z,22.63
2023-10-30T01:11:59.661Z,23.23
2023-10-30T01:14:27.016Z,20.57
2023-10-30T01:16:53.996Z,17.87
2023-10-30T01:19:22.024Z,20.80
2023-10-30T01:21:49.054Z,24.40
2023-10-30T01:24:16.023Z,16.23
2023-10-30T01:26:43.092Z,24.47
2023-10-30T01:29:10.067Z,22.77
2023-10-30T01:31:37.184Z,21.87
2023-10-30T01:34:04.237Z,19.97
2023-10-30T01:36:31.413Z,20.23
2023-10-30T01:38:59.550Z,26.17
2023-10-30T01:41:26.826Z,21.27
2023-10-30T01:43:53.895Z,21.83
2023-10-30T01:46:20.898Z,20.33
2023-10-30T01:48:48.689Z,22.73
2023-10-30T01:51:21.851Z,18.53
2023-10-30T01:53:49.966Z,25.33
2023-10-30T01:56:18.078Z,24.60
2023-10-30T01:58:45.756Z,23.77
2023-10-30T02:01:13.583Z,24.57
2023-10-30T02:03:41.188Z,27.40
2023-10-30T02:06:09.305Z,26.93
2023-10-30T02:08:37.155Z,21.30
2023-10-30T02:11:04.171Z,20.00
2023-10-30T02:13:31.182Z,27.63
2023-10-30T02:15:58.229Z,24.30
2023-10-30T02:18:25.799Z,27.40
2023-10-30T02:20:54.118Z,24.73
2023-10-30T02:23:21.121Z,27.10
2023-10-30T02:25:48.088Z,25.83
2023-10-30T02:28:15.020Z,28.43
2023-10-30T02:30:42.006Z,24.53
2023-10-30T02:33:09.396Z,27.30
2023-10-30T02:35:36.411Z,31.53
2023-10-30T02:38:03.340Z,24.23
2023-10-30T02:40:30.222Z,24.97
2023-10-30T02:42:57.202Z,24.50
2023-10-30T02:45:24.642Z,31.47
2023-10-30T02:47:51.581Z,28.37
2023-10-30T02:50:18.500Z,23.17
2023-10-30T02:52:45.485Z,23.77
2023-10-30T02:55:12.423Z,24.77
2023-10-30T02:57:39.597Z,26.30
2023-10-30T03:00:08.553Z,27.03
2023-10-30T03:02:35.550Z,24.73
2023-10-30T03:05:02.729Z,24.87
2023-10-30T03:07:29.837Z,23.53
2023-10-30T03:09:56.830Z,22.97
2023-10-30T03:12:23.824Z,24.60
2023-10-30T03:14:50.818Z,22.33
2023-10-30T03:17:17.755Z,25.50
2023-10-30T03:19:45.724Z,25.13
2023-10-30T03:22:12.733Z,23.07
2023-10-30T03:24:39.770Z,27.20
2023-10-30T03:27:06.892Z,26.87
2023-10-30T03:29:36.928Z,28.53
2023-10-30T03:32:04.175Z,26.10
2023-10-30T03:34:31.272Z,23.57
2023-10-30T03:36:58.289Z,26.83
2023-10-30T03:39:25.235Z,23.53
2023-10-30T03:41:52.220Z,26.67
2023-10-30T03:44:20.969Z,22.67
2023-10-30T03:46:47.934Z,24.43
2023-10-30T03:49:14.882Z,27.17
2023-10-30T03:51:42.817Z,25.40
2023-10-30T03:54:09.800Z,27.50
2023-10-30T03:56:36.909Z,28.97
2023-10-30T03:59:03.985Z,21.40
2023-10-30T04:01:30.981Z,22.10
2023-10-30T04:03:58.083Z,21.37
2023-10-30T04:06:25.250Z,25.13
2023-10-30T04:08:52.199Z,25.70
2023-10-30T04:11:19.340Z,23.70
2023-10-30T04:13:46.361Z,21.33
2023-10-30T04:16:17.909Z,21.23
2023-10-30T04:18:44.991Z,18.10
2023-10-30T04:21:12.016Z,19.57
2023-10-30T04:23:39.481Z,28.40
2023-10-30T04:26:06.525Z,24.67
2023-10-30T04:28:33.693Z,19.50
2023-10-30T04:31:00.609Z,19.80
2023-10-30T04:33:28.173Z,21.77
2023-10-30T04:35:55.335Z,27.97
2023-10-30T04:38:25.634Z,20.13
2023-10-30T04:40:52.709Z,25.67
2023-10-30T04:43:19.630Z,21.17
2023-10-30T04:45:46.608Z,21.83
2023-10-30T04:48:13.665Z,20.50
2023-10-30T04:50:40.703Z,22.00
2023-10-30T04:53:07.706Z,24.73
2023-10-30T04:55:35.825Z,21.43
2023-10-30T04:58:03.005Z,22.40
2023-10-30T05:00:30.088Z,22.10
2023-10-30T05:02:57.161Z,21.77
2023-10-30T05:05:24.184Z,26.83
2023-10-30T05:07:51.115Z,25.10
2023-10-30T05:10:18.151Z,21.50
2023-10-30T05:12:45.199Z,21.53
2023-10-30T05:15:12.256Z,28.63
2023-10-30T05:17:39.748Z,23.13
2023-10-30T05:20:07.684Z,21.70
2023-10-30T05:22:35.164Z,21.03
2023-10-30T05:25:06.553Z,24.70
2023-10-30T05:27:33.866Z,28.40
2023-10-30T05:30:01.216Z,26.30
2023-10-30T05:32:28.387Z,24.47
2023-10-30T05:34:55.413Z,29.17
2023-10-30T05:37:22.916Z,29.50
2023-10-30T05:39:51.274Z,24.87
2023-10-30T05:42:18.556Z,30.37
2023-10-30T05:44:46.564Z,28.00
2023-10-30T05:47:14.560Z,25.90
2023-10-30T05:49:41.982Z,29.10
2023-10-30T05:52:10.823Z,28.57
2023-10-30T05:54:38.287Z,27.67
2023-10-30T05:57:07.117Z,25.37
2023-10-30T05:59:34.097Z,35.20
2023-10-30T06:02:01.197Z,30.63
2023-10-30T06:04:28.309Z,22.37
2023-10-30T06:06:55.494Z,23.23
2023-10-30T06:09:22.520Z,24.20
2023-10-30T06:11:49.871Z,28.43
2023-10-30T06:14:18.333Z,22.07
2023-10-30T06:16:45.520Z,24.13
2023-10-30T06:19:12.682Z,22.60
2023-10-30T06:21:44.740Z,23.33
2023-10-30T06:24:12.068Z,21.17
2023-10-30T06:26:42.186Z,20.27
2023-10-30T06:29:09.740Z,22.43
2023-10-30T06:31:37.027Z,22.90
2023-10-30T06:34:04.167Z,24.67
2023-10-30T06:36:31.937Z,28.50
2023-10-30T06:38:59.052Z,25.77
2023-10-30T06:41:26.025Z,20.80
2023-10-30T06:43:53.153Z,20.80
2023-10-30T06:46:20.210Z,23.00
2023-10-30T06:48:47.321Z,18.53
2023-10-30T06:54:05.229Z,18.10
2023-10-30T06:56:32.221Z,18.63
2023-10-30T06:58:59.202Z,18.40
2023-10-30T07:01:26.315Z,16.60
2023-10-30T07:03:53.502Z,19.43
2023-10-30T07:06:20.527Z,17.03
2023-10-30T07:08:47.412Z,13.63
2023-10-30T07:11:14.346Z,16.10
2023-10-30T07:13:41.359Z,14.20
2023-10-30T07:16:08.838Z,14.97
2023-10-30T07:18:35.901Z,16.90
2023-10-30T07:21:03.094Z,15.67
2023-10-30T07:23:29.988Z,17.37
2023-10-30T07:25:56.943Z,14.83
2023-10-30T07:28:23.900Z,16.73
2023-10-30T07:30:50.877Z,16.40
2023-10-30T07:33:18.140Z,16.50
2023-10-30T07:35:46.053Z,15.50
2023-10-30T07:38:13.008Z,11.33
2023-10-30T07:40:39.974Z,14.83
2023-10-30T07:43:06.912Z,18.67
2023-10-30T07:45:40.110Z,17.87
2023-10-30T07:48:07.943Z,17.40
2023-10-30T07:50:37.263Z,13.97
2023-10-30T07:53:04.243Z,13.63
2023-10-30T07:55:31.478Z,20.40
2023-10-30T07:57:58.571Z,13.50
2023-10-30T08:00:26.614Z,11.87
2023-10-30T08:02:55.053Z,21.37
2023-10-30T08:05:24.236Z,17.43
2023-10-30T08:07:51.458Z,20.47
2023-10-30T08:10:18.616Z,19.80
2023-10-30T08:12:45.961Z,14.83
2023-10-30T08:15:13.304Z,16.87
2023-10-30T08:17:40.396Z,19.40
2023-10-30T08:20:07.962Z,13.80
2023-10-30T08:22:34.933Z,13.93
2023-10-30T08:25:01.912Z,18.93
2023-10-30T08:27:29.034Z,15.87
2023-10-30T08:29:56.222Z,16.37
2023-10-30T08:32:23.224Z,15.33
2023-10-30T08:34:50.878Z,16.80
2023-10-30T08:37:17.985Z,17.10
2023-10-30T08:39:49.456Z,19.03
2023-10-30T08:42:16.802Z,16.40
2023-10-30T08:44:43.679Z,17.60
2023-10-30T08:47:10.602Z,17.53
2023-10-30T08:49:37.606Z,23.33
2023-10-30T08:52:05.341Z,17.60
2023-10-30T08:54:32.642Z,15.77
2023-10-30T08:57:10.943Z,16.03
2023-10-30T08:59:43.942Z,14.30
2023-10-30T09:02:11.094Z,18.30
2023-10-30T09:04:38.439Z,16.77
2023-10-30T09:07:05.541Z,19.20
2023-10-30T09:09:34.068Z,20.27
2023-10-30T09:12:01.149Z,18.43
2023-10-30T09:14:28.162Z,20.23
2023-10-30T09:16:55.220Z,18.80
2023-10-30T09:19:22.196Z,18.43
2023-10-30T09:21:49.227Z,24.83
2023-10-30T09:24:17.061Z,16.13
2023-10-30T09:26:44.184Z,18.30
2023-10-30T09:29:11.238Z,20.13
2023-10-30T09:31:38.294Z,16.83
2023-10-30T09:34:05.402Z,18.73
2023-10-30T09:36:32.960Z,13.37
2023-10-30T09:39:00.049Z,15.17
2023-10-30T09:41:28.882Z,11.80
2023-10-30T09:43:57.755Z,16.00
2023-10-30T09:46:32.484Z,13.13
2023-10-30T09:49:00.597Z,15.93
2023-10-30T09:51:29.213Z,14.77
2023-10-30T09:53:58.357Z,12.67
2023-10-30T09:56:27.362Z,13.20
2023-10-30T09:58:55.199Z,10.43
2023-10-30T10:01:22.621Z,9.77
2023-10-30T10:03:50.007Z,11.77
2023-10-30T10:06:17.949Z,12.80
2023-10-30T10:08:45.165Z,12.27
2023-10-30T10:11:12.187Z,12.73
2023-10-30T10:13:53.886Z,15.33
2023-10-30T10:16:30.391Z,13.93
2023-10-30T10:18:57.801Z,9.20
2023-10-30T10:21:24.921Z,14.47
2023-10-30T10:23:52.055Z,12.23
2023-10-30T10:26:19.051Z,11.53
2023-10-30T10:28:49.897Z,9.80
2023-10-30T10:31:18.715Z,16.20
2023-10-30T10:33:49.713Z,12.20
2023-10-30T10:36:17.057Z,10.17
2023-10-30T10:38:58.905Z,12.87
2023-10-30T10:41:29.206Z,11.47
2023-10-30T10:43:57.940Z,17.67
2023-10-30T10:46:25.208Z,15.27
2023-10-30T10:48:52.503Z,12.23
2023-10-30T10:51:34.545Z,17.17
2023-10-30T10:54:08.139Z,13.17
2023-10-30T10:56:37.918Z,13.80
2023-10-30T10:59:12.666Z,15.10
2023-10-30T11:01:43.975Z,15.77
2023-10-30T11:04:13.952Z,10.73
2023-10-30T11:06:48.041Z,13.57
2023-10-30T11:09:37.184Z,13.70
2023-10-30T11:12:06.957Z,17.17
2023-10-30T11:14:39.849Z,17.87
2023-10-30T11:17:06.989Z,14.90
2023-10-30T11:19:34.355Z,18.40
2023-10-30T11:22:01.725Z,16.63
2023-10-30T11:24:43.199Z,20.43
2023-10-30T11:27:28.468Z,17.13
2023-10-30T11:30:08.047Z,13.47
2023-10-30T11:32:52.535Z,15.27
2023-10-30T11:35:23.626Z,17.10
2023-10-30T11:37:56.343Z,17.27
2023-10-30T11:40:25.424Z,22.63
2023-10-30T11:42:57.666Z,14.43
2023-10-30T11:45:27.190Z,22.83
2023-10-30T11:48:01.010Z,19.90
2023-10-30T11:50:35.620Z,12.90
2023-10-30T11:53:10.556Z,13.57
2023-10-30T11:55:41.794Z,15.03
2023-10-30T11:58:12.382Z,14.23
2023-10-30T12:00:48.303Z,15.03
2023-10-30T12:03:15.917Z,11.20
2023-10-30T12:05:43.105Z,13.03
2023-10-30T12:08:11.169Z,14.97
2023-10-30T12:10:39.105Z,11.37
2023-10-30T12:13:06.359Z,15.27
2023-10-30T12:15:34.351Z,18.57
2023-10-30T12:18:01.504Z,16.70
2023-10-30T12:20:28.566Z,15.87
2023-10-30T12:22:56.501Z,16.63
2023-10-30T12:25:23.579Z,14.27
2023-10-30T12:27:50.565Z,17.67
2023-10-30T12:30:18.790Z,11.77
2023-10-30T12:32:55.683Z,13.93
2023-10-30T12:35:22.773Z,12.73
2023-10-30T12:37:49.727Z,14.23
2023-10-30T12:40:17.213Z,14.97
2023-10-30T12:42:48.408Z,15.00
2023-10-30T12:45:22.415Z,15.37
2023-10-30T12:47:55.134Z,15.63
2023-10-30T12:50:24.062Z,13.37
2023-10-30T12:52:51.027Z,19.23
2023-10-30T12:55:18.040Z,12.90
2023-10-30T12:57:45.227Z,17.93
2023-10-30T13:00:12.726Z,17.83
2023-10-30T13:02:40.173Z,14.13
2023-10-30T13:05:07.899Z,16.90
2023-10-30T13:07:35.109Z,15.17
2023-10-30T13:10:02.381Z,13.40
2023-10-30T13:12:31.992Z,16.07
2023-10-30T13:14:59.164Z,10.73
2023-10-30T13:17:26.151Z,13.77
2023-10-30T13:19:53.983Z,13.40
2023-10-30T13:22:21.013Z,14.10
2023-10-30T13:24:50.207Z,8.17
2023-10-30T13:27:17.612Z,14.87
2023-10-30T13:29:45.149Z,10.77
2023-10-30T13:32:12.075Z,11.67
2023-10-30T13:34:39.106Z,12.60
2023-10-30T13:37:06.498Z,14.00
2023-10-30T13:39:33.460Z,21.43
2023-10-30T13:42:00.523Z,13.97
2023-10-30T13:44:27.531Z,10.97
2023-10-30T13:46:54.762Z,12.77
2023-10-30T13:49:22.365Z,13.53
2023-10-30T13:51:49.444Z,13.03
2023-10-30T13:54:16.519Z,14.77
2023-10-30T13:56:43.491Z,9.57
2023-10-30T13:59:10.447Z,11.03
2023-10-30T14:01:37.491Z,16.10
2023-10-30T14:04:05.256Z,17.77
2023-10-30T14:06:32.381Z,17.37
2023-10-30T14:08:59.373Z,8.17
2023-10-30T14:11:26.389Z,11.10
2023-10-30T14:13:54.339Z,14.73
2023-10-30T14:16:21.624Z,10.43
2023-10-30T14:18:49.348Z,9.47
2023-10-30T14:21:17.631Z,11.10
2023-10-30T14:23:44.806Z,20.27
2023-10-30T14:26:11.906Z,10.67
2023-10-30T14:28:39.080Z,10.63
2023-10-30T14:31:06.161Z,15.07
2023-10-30T14:33:33.301Z,18.53
2023-10-30T14:36:00.927Z,16.07
2023-10-30T14:38:28.033Z,12.27
2023-10-30T14:40:55.024Z,10.80
2023-10-30T14:43:21.930Z,13.87
2023-10-30T14:45:48.978Z,13.00
2023-10-30T14:48:16.069Z,15.67
2023-10-30T14:50:43.009Z,14.73
2023-10-30T14:53:09.935Z,18.87
2023-10-30T14:55:36.798Z,13.77
2023-10-30T14:58:03.870Z,11.50
2023-10-30T15:00:30.958Z,7.90
2023-10-30T15:02:57.962Z,12.67
2023-10-30T15:05:24.971Z,13.30
2023-10-30T15:07:53.736Z,11.63
2023-10-30T15:10:21.539Z,9.90
2023-10-30T15:12:48.615Z,12.70
2023-10-30T15:15:16.377Z,14.30
2023-10-30T15:17:44.417Z,19.07
2023-10-30T15:20:11.662Z,16.27
2023-10-30T15:22:38.684Z,23.53
2023-10-30T15:25:06.077Z,18.87
2023-10-30T15:27:35.085Z,21.00
2023-10-30T15:30:02.119Z,10.53
2023-10-30T15:32:29.270Z,15.20
2023-10-30T15:34:56.368Z,18.30
2023-10-30T15:37:23.422Z,16.97
2023-10-30T15:39:50.383Z,8.63
2023-10-30T15:42:17.382Z,14.60
2023-10-30T15:44:44.265Z,16.93
2023-10-30T15:47:24.391Z,13.90
2023-10-30T15:49:53.059Z,17.43
2023-10-30T15:59:51.675Z,11.70
2023-10-30T16:02:18.899Z,14.83
2023-10-30T16:05:01.741Z,11.37
2023-10-30T16:07:30.051Z,22.83
2023-10-30T16:12:27.936Z,14.97
2023-10-30T16:14:55.336Z,11.93
2023-10-30T16:17:22.394Z,12.67
2023-10-30T16:20:22.409Z,16.90
2023-10-30T16:22:39.616Z,10.57
2023-10-30T16:25:07.489Z,10.93
2023-10-30T16:27:34.782Z,23.27
2023-10-30T16:30:03.852Z,8.17
2023-10-30T16:32:30.971Z,11.03
2023-10-30T16:34:58.005Z,12.83
2023-10-30T16:37:25.135Z,13.87
2023-10-30T16:39:52.094Z,10.97
2023-10-30T16:42:22.339Z,10.23
2023-10-30T16:44:51.501Z,21.93
2023-10-30T16:47:18.549Z,15.67
2023-10-30T16:49:45.476Z,12.33
2023-10-30T16:52:12.598Z,16.30
2023-10-30T16:54:39.521Z,13.97
2023-10-30T16:57:06.507Z,20.83
2023-10-30T16:59:33.429Z,16.50
2023-10-30T17:02:00.403Z,17.83
2023-10-30T17:04:27.414Z,11.23
2023-10-30T17:06:54.343Z,19.37
2023-10-30T17:09:21.275Z,16.87
2023-10-30T17:11:48.248Z,16.80
2023-10-30T17:14:16.035Z,13.73
2023-10-30T17:16:45.755Z,10.53
2023-10-30T17:19:16.505Z,14.70
2023-10-30T17:21:44.859Z,10.27
2023-10-30T17:24:12.177Z,11.07
2023-10-30T17:26:39.152Z,13.90
2023-10-30T17:29:06.179Z,11.90
2023-10-30T17:31:33.314Z,12.80
2023-10-30T17:34:00.348Z,8.83
2023-10-30T17:36:27.309Z,13.40
2023-10-30T17:38:54.342Z,8.20
2023-10-30T17:41:21.425Z,8.20
2023-10-30T17:43:48.477Z,10.00
2023-10-30T17:46:15.503Z,6.60
2023-10-30T17:48:42.481Z,16.00
2023-10-30T17:51:09.415Z,13.90
2023-10-30T17:53:36.343Z,13.90
2023-10-30T17:56:03.331Z,11.20
2023-10-30T17:58:30.297Z,10.23
2023-10-30T18:00:57.437Z,12.73
2023-10-30T18:03:24.472Z,14.63
2023-10-30T18:05:51.433Z,7.43
2023-10-30T18:08:19.250Z,11.27
2023-10-30T18:10:46.180Z,12.93
2023-10-30T18:13:13.437Z,16.70
2023-10-30T18:15:40.601Z,9.90
2023-10-30T18:18:07.661Z,11.80
2023-10-30T18:20:36.457Z,15.83
2023-10-30T18:23:04.244Z,11.33
2023-10-30T18:25:31.237Z,12.07
2023-10-30T18:27:58.223Z,15.27
2023-10-30T18:30:25.162Z,19.27
2023-10-30T18:32:52.248Z,15.33
2023-10-30T18:35:19.480Z,16.33
2023-10-30T18:37:46.415Z,14.53
2023-10-30T18:40:13.943Z,11.50
2023-10-30T18:42:41.167Z,15.97
2023-10-30T18:45:09.156Z,14.40
2023-10-30T18:47:36.468Z,16.30
2023-10-30T18:50:04.469Z,19.07
2023-10-30T18:52:31.686Z,16.60
2023-10-30T18:54:58.836Z,14.03
2023-10-30T18:57:26.097Z,12.30
2023-10-30T18:59:53.173Z,12.07
2023-10-30T19:02:20.184Z,15.73
2023-10-30T19:04:48.010Z,17.73
2023-10-30T19:07:15.507Z,12.87
2023-10-30T19:09:42.433Z,13.03
2023-10-30T19:12:09.964Z,10.10
2023-10-30T19:14:37.042Z,14.77
2023-10-30T19:17:04.450Z,16.90
2023-10-30T19:19:31.425Z,15.40
2023-10-30T19:21:59.792Z,16.37
2023-10-30T19:24:26.793Z,19.97
2023-10-30T19:26:53.803Z,14.73
2023-10-30T19:29:20.779Z,12.23
2023-10-30T19:31:47.814Z,16.73
2023-10-30T19:34:14.959Z,12.73
2023-10-30T19:36:42.902Z,16.23
2023-10-30T19:39:10.876Z,13.83
2023-10-30T19:41:38.075Z,12.63
2023-10-30T19:44:05.266Z,15.80
2023-10-30T19:46:36.651Z,20.17
2023-10-30T19:49:07.760Z,13.67
2023-10-30T19:51:43.592Z,8.33
2023-10-30T19:54:13.334Z,19.93
2023-10-30T19:56:40.412Z,18.07
2023-10-30T19:59:07.383Z,10.60
2023-10-30T20:01:34.437Z,7.43
2023-10-30T20:04:01.493Z,8.07
2023-10-30T20:06:28.626Z,14.13
2023-10-30T20:08:55.586Z,13.83
2023-10-30T20:11:22.600Z,13.13
2023-10-30T20:13:49.484Z,10.20
2023-10-30T20:16:16.490Z,15.13
2023-10-30T20:18:45.338Z,15.30
2023-10-30T20:21:13.059Z,17.40
2023-10-30T20:23:40.103Z,16.60
2023-10-30T20:26:08.271Z,14.00
2023-10-30T20:28:36.366Z,25.63
2023-10-30T20:31:03.531Z,19.10
2023-10-30T20:33:30.672Z,18.10
2023-10-30T20:35:57.624Z,15.00
2023-10-30T20:38:24.479Z,11.97
2023-10-30T20:40:51.564Z,11.67
2023-10-30T20:43:21.018Z,17.30
2023-10-30T20:45:48.015Z,11.93
2023-10-30T20:48:15.398Z,14.93
2023-10-30T20:50:42.512Z,17.83
2023-10-30T20:53:09.689Z,18.00
2023-10-30T20:55:37.476Z,16.50
2023-10-30T20:58:04.513Z,15.30
2023-10-30T21:00:32.224Z,12.70
2023-10-30T21:02:59.224Z,15.17
2023-10-30T21:05:26.368Z,10.70
2023-10-30T21:07:53.345Z,11.60
2023-10-30T21:10:20.391Z,11.70
2023-10-30T21:12:47.652Z,11.83
2023-10-30T21:15:14.626Z,10.80
2023-10-30T21:17:41.787Z,14.93
2023-10-30T21:20:09.307Z,10.07
2023-10-30T21:22:36.336Z,11.70
2023-10-30T21:25:03.407Z,7.30
2023-10-30T21:27:30.524Z,8.37
2023-10-30T21:29:57.460Z,12.07
2023-10-30T21:32:24.428Z,14.13
2023-10-30T21:34:51.641Z,9.67
2023-10-30T21:37:18.694Z,13.03
2023-10-30T21:39:45.591Z,11.50
2023-10-30T21:42:12.593Z,11.83
2023-10-30T21:44:39.717Z,14.87
2023-10-30T21:47:07.183Z,8.97
2023-10-30T21:49:34.878Z,7.80
2023-10-30T21:52:01.782Z,11.70
2023-10-30T21:54:28.877Z,11.40
2023-10-30T21:56:55.811Z,12.53
2023-10-30T21:59:22.801Z,7.80
2023-10-30T22:01:49.975Z,9.07
2023-10-30T22:04:17.000Z,16.30
2023-10-30T22:06:44.092Z,8.47
2023-10-30T22:09:11.053Z,7.50
2023-10-30T22:11:38.001Z,17.20
2023-10-30T22:14:05.027Z,8.70
2023-10-30T22:16:32.516Z,10.00
2023-10-30T22:18:59.588Z,15.07
2023-10-30T22:21:26.695Z,13.20
2023-10-30T22:23:54.390Z,15.53
2023-10-30T22:26:21.395Z,19.37
2023-10-30T22:28:48.519Z,13.47
2023-10-30T22:31:15.707Z,13.30
2023-10-30T22:33:42.753Z,10.10
2023-10-30T22:36:09.850Z,11.00
2023-10-30T22:38:36.828Z,9.07
2023-10-30T22:41:04.076Z,9.77
2023-10-30T22:43:31.110Z,10.73
2023-10-30T22:45:58.122Z,9.47
2023-10-30T22:48:25.121Z,12.23
2023-10-30T22:50:52.027Z,10.73
2023-10-30T22:53:19.172Z,8.77
2023-10-30T22:55:46.932Z,9.70
2023-10-30T22:58:13.953Z,6.90
2023-10-30T23:00:44.058Z,12.40
2023-10-30T23:03:11.296Z,8.30
2023-10-30T23:05:38.709Z,8.17
2023-10-30T23:08:07.258Z,5.97
2023-10-30T23:10:34.850Z,8.20
2023-10-30T23:13:01.898Z,3.63
2023-10-30T23:15:28.869Z,5.73
2023-10-30T23:17:55.986Z,6.50
2023-10-30T23:20:25.350Z,5.30
2023-10-30T23:22:54.235Z,5.20
2023-10-30T23:25:21.414Z,5.23
2023-10-30T23:27:48.428Z,6.03
2023-10-30T23:30:15.429Z,6.53
2023-10-30T23:32:43.306Z,6.50
2023-10-30T23:35:10.575Z,10.77
2023-10-30T23:37:37.624Z,3.30
2023-10-30T23:40:05.243Z,6.93
2023-10-30T23:42:32.168Z,7.17
2023-10-30T23:44:59.272Z,9.37
2023-10-30T23:47:26.292Z,6.30
2023-10-30T23:49:53.334Z,5.37
2023-10-30T23:52:20.964Z,5.27
2023-10-30T23:54:47.922Z,7.10
2023-10-30T23:57:14.849Z,9.40
2023-10-30T23:59:43.525Z,11.10
